sensor_id;sensor_type;location;lat;lon;timestamp;P1;durP1;ratioP1;P2;durP2;ratioP2
12892;SDS011;6514;48.606;9.222;2023-08-24T00:01:56;5.93;;;5.40;;
12892;SDS011;6514;48.606;9.222;2023-08-24T00:04:22;5.83;;;5.23;;
12892;SDS011;6514;48.606;9.222;2023-08-24T00:06:49;6.20;;;5.60;;
12892;SDS011;6514;48.606;9.222;2023-08-24T00:09:16;6.03;;;5.43;;
12892;SDS011;6514;48.606;9.222;2023-08-24T00:11:43;6.07;;;5.47;;
12892;SDS011;6514;48.606;9.222;2023-08-24T00:14:10;6.40;;;5.43;;
12892;SDS011;6514;48.606;9.222;2023-08-24T00:16:38;6.90;;;5.97;;
12892;SDS011;6514;48.606;9.222;2023-08-24T00:19:05;6.40;;;5.70;;
12892;SDS011;6514;48.606;9.222;2023-08-24T00:21:33;8.03;;;5.57;;
12892;SDS011;6514;48.606;9.222;2023-08-24T00:23:59;6.10;;;5.50;;
12892;SDS011;6514;48.606;9.222;2023-08-24T00:26:26;8.30;;;6.20;;
12892;SDS011;6514;48.606;9.222;2023-08-24T00:28:53;6.67;;;6.03;;
12892;SDS011;6514;48.606;9.222;2023-08-24T00:31:20;6.57;;;5.97;;
12892;SDS011;6514;48.606;9.222;2023-08-24T00:33:48;6.70;;;6.00;;
12892;SDS011;6514;48.606;9.222;2023-08-24T00:36:16;7.07;;;6.37;;
12892;SDS011;6514;48.606;9.222;2023-08-24T00:38:44;7.97;;;6.20;;
12892;SDS011;6514;48.606;9.222;2023-08-24T00:41:15;7.47;;;6.40;;
12892;SDS011;6514;48.606;9.222;2023-08-24T00:43:42;7.30;;;6.50;;
12892;SDS011;6514;48.606;9.222;2023-08-24T00:46:09;8.07;;;6.90;;
12892;SDS011;6514;48.606;9.222;2023-08-24T00:48:36;9.07;;;7.70;;
12892;SDS011;6514;48.606;9.222;2023-08-24T00:51:04;7.23;;;6.30;;
12892;SDS011;6514;48.606;9.222;2023-08-24T00:53:31;8.27;;;7.20;;
12892;SDS011;6514;48.606;9.222;2023-08-24T00:55:59;7.30;;;6.33;;
12892;SDS011;6514;48.606;9.222;2023-08-24T00:58:26;7.37;;;6.67;;
12892;SDS011;6514;48.606;9.222;2023-08-24T01:00:54;8.13;;;7.43;;
12892;SDS011;6514;48.606;9.222;2023-08-24T01:03:22;8.10;;;7.30;;
12892;SDS011;6514;48.606;9.222;2023-08-24T01:05:49;7.27;;;6.57;;
12892;SDS011;6514;48.606;9.222;2023-08-24T01:08:18;6.57;;;5.97;;
12892;SDS011;6514;48.606;9.222;2023-08-24T01:10:47;7.30;;;6.60;;
12892;SDS011;6514;48.606;9.222;2023-08-24T01:13:20;7.27;;;6.00;;
12892;SDS011;6514;48.606;9.222;2023-08-24T01:15:55;7.00;;;6.30;;
12892;SDS011;6514;48.606;9.222;2023-08-24T01:18:26;6.87;;;6.27;;
12892;SDS011;6514;48.606;9.222;2023-08-24T01:20:56;7.20;;;6.50;;
12892;SDS011;6514;48.606;9.222;2023-08-24T01:23:31;7.00;;;5.93;;
12892;SDS011;6514;48.606;9.222;2023-08-24T01:26:08;6.97;;;6.33;;
12892;SDS011;6514;48.606;9.222;2023-08-24T01:28:40;7.00;;;6.23;;
12892;SDS011;6514;48.606;9.222;2023-08-24T01:31:09;6.83;;;6.23;;
12892;SDS011;6514;48.606;9.222;2023-08-24T01:33:36;7.53;;;6.83;;
12892;SDS011;6514;48.606;9.222;2023-08-24T01:36:03;7.73;;;7.03;;
12892;SDS011;6514;48.606;9.222;2023-08-24T01:38:30;7.00;;;6.27;;
12892;SDS011;6514;48.606;9.222;2023-08-24T01:40:59;7.23;;;6.53;;
12892;SDS011;6514;48.606;9.222;2023-08-24T01:43:32;9.80;;;6.80;;
12892;SDS011;6514;48.606;9.222;2023-08-24T01:46:03;7.73;;;6.40;;
12892;SDS011;6514;48.606;9.222;2023-08-24T01:48:30;6.87;;;6.27;;
12892;SDS011;6514;48.606;9.222;2023-08-24T01:50:58;7.07;;;6.47;;
12892;SDS011;6514;48.606;9.222;2023-08-24T01:53:27;7.00;;;6.03;;
12892;SDS011;6514;48.606;9.222;2023-08-24T01:55:56;7.20;;;6.50;;
12892;SDS011;6514;48.606;9.222;2023-08-24T01:58:23;7.17;;;6.20;;
12892;SDS011;6514;48.606;9.222;2023-08-24T02:00:50;6.60;;;6.00;;
12892;SDS011;6514;48.606;9.222;2023-08-24T02:03:17;6.53;;;5.83;;
12892;SDS011;6514;48.606;9.222;2023-08-24T02:05:44;6.90;;;6.20;;
12892;SDS011;6514;48.606;9.222;2023-08-24T02:08:11;6.17;;;5.57;;
12892;SDS011;6514;48.606;9.222;2023-08-24T02:10:37;9.57;;;6.17;;
12892;SDS011;6514;48.606;9.222;2023-08-24T02:13:04;6.50;;;5.90;;
12892;SDS011;6514;48.606;9.222;2023-08-24T02:15:31;7.10;;;6.20;;
12892;SDS011;6514;48.606;9.222;2023-08-24T02:17:59;7.57;;;6.87;;
12892;SDS011;6514;48.606;9.222;2023-08-24T02:20:26;7.33;;;6.47;;
12892;SDS011;6514;48.606;9.222;2023-08-24T02:22:53;8.17;;;7.10;;
12892;SDS011;6514;48.606;9.222;2023-08-24T02:25:20;7.23;;;6.63;;
12892;SDS011;6514;48.606;9.222;2023-08-24T02:27:46;7.93;;;6.77;;
12892;SDS011;6514;48.606;9.222;2023-08-24T02:30:14;7.97;;;7.17;;
12892;SDS011;6514;48.606;9.222;2023-08-24T02:32:40;8.40;;;6.60;;
12892;SDS011;6514;48.606;9.222;2023-08-24T02:35:09;7.23;;;5.90;;
12892;SDS011;6514;48.606;9.222;2023-08-24T02:37:36;9.83;;;6.37;;
12892;SDS011;6514;48.606;9.222;2023-08-24T02:40:03;6.83;;;6.23;;
12892;SDS011;6514;48.606;9.222;2023-08-24T02:42:31;7.63;;;5.93;;
12892;SDS011;6514;48.606;9.222;2023-08-24T02:44:57;6.50;;;5.90;;
12892;SDS011;6514;48.606;9.222;2023-08-24T02:47:24;6.67;;;5.93;;
12892;SDS011;6514;48.606;9.222;2023-08-24T02:49:51;6.27;;;5.53;;
12892;SDS011;6514;48.606;9.222;2023-08-24T02:52:19;7.03;;;6.33;;
12892;SDS011;6514;48.606;9.222;2023-08-24T02:54:46;6.30;;;5.67;;
12892;SDS011;6514;48.606;9.222;2023-08-24T02:57:13;7.27;;;6.57;;
12892;SDS011;6514;48.606;9.222;2023-08-24T02:59:40;6.83;;;6.03;;
12892;SDS011;6514;48.606;9.222;2023-08-24T03:02:08;6.67;;;6.00;;
12892;SDS011;6514;48.606;9.222;2023-08-24T03:04:35;7.40;;;6.43;;
12892;SDS011;6514;48.606;9.222;2023-08-24T03:07:02;6.37;;;5.73;;
12892;SDS011;6514;48.606;9.222;2023-08-24T03:09:33;7.80;;;6.20;;
12892;SDS011;6514;48.606;9.222;2023-08-24T03:12:00;7.60;;;5.67;;
12892;SDS011;6514;48.606;9.222;2023-08-24T03:14:26;7.10;;;6.10;;
12892;SDS011;6514;48.606;9.222;2023-08-24T03:16:52;7.67;;;6.20;;
12892;SDS011;6514;48.606;9.222;2023-08-24T03:19:19;7.47;;;6.43;;
12892;SDS011;6514;48.606;9.222;2023-08-24T03:21:46;7.33;;;6.53;;
12892;SDS011;6514;48.606;9.222;2023-08-24T03:24:13;7.47;;;5.90;;
12892;SDS011;6514;48.606;9.222;2023-08-24T03:26:41;6.97;;;5.83;;
12892;SDS011;6514;48.606;9.222;2023-08-24T03:29:08;6.50;;;5.90;;
12892;SDS011;6514;48.606;9.222;2023-08-24T03:31:35;6.80;;;6.20;;
12892;SDS011;6514;48.606;9.222;2023-08-24T03:34:01;6.83;;;6.27;;
12892;SDS011;6514;48.606;9.222;2023-08-24T03:36:29;7.97;;;5.93;;
12892;SDS011;6514;48.606;9.222;2023-08-24T03:38:56;9.50;;;5.83;;
12892;SDS011;6514;48.606;9.222;2023-08-24T03:41:23;8.30;;;5.47;;
12892;SDS011;6514;48.606;9.222;2023-08-24T03:43:51;6.57;;;5.97;;
12892;SDS011;6514;48.606;9.222;2023-08-24T03:46:18;7.67;;;6.60;;
12892;SDS011;6514;48.606;9.222;2023-08-24T03:48:44;6.93;;;6.20;;
12892;SDS011;6514;48.606;9.222;2023-08-24T03:51:11;7.73;;;7.03;;
12892;SDS011;6514;48.606;9.222;2023-08-24T03:53:38;7.70;;;6.90;;
12892;SDS011;6514;48.606;9.222;2023-08-24T03:56:05;7.93;;;7.23;;
12892;SDS011;6514;48.606;9.222;2023-08-24T03:58:31;8.30;;;7.43;;
12892;SDS011;6514;48.606;9.222;2023-08-24T04:01:00;8.10;;;7.27;;
12892;SDS011;6514;48.606;9.222;2023-08-24T04:03:27;8.03;;;6.97;;
12892;SDS011;6514;48.606;9.222;2023-08-24T04:05:54;8.20;;;7.23;;
12892;SDS011;6514;48.606;9.222;2023-08-24T04:08:20;7.50;;;6.80;;
12892;SDS011;6514;48.606;9.222;2023-08-24T04:10:47;8.50;;;7.70;;
12892;SDS011;6514;48.606;9.222;2023-08-24T04:13:14;8.70;;;7.70;;
12892;SDS011;6514;48.606;9.222;2023-08-24T04:15:41;7.07;;;6.37;;
12892;SDS011;6514;48.606;9.222;2023-08-24T04:18:09;8.00;;;7.20;;
12892;SDS011;6514;48.606;9.222;2023-08-24T04:20:36;8.37;;;7.50;;
12892;SDS011;6514;48.606;9.222;2023-08-24T04:23:03;8.20;;;7.40;;
12892;SDS011;6514;48.606;9.222;2023-08-24T04:25:30;7.67;;;6.97;;
12892;SDS011;6514;48.606;9.222;2023-08-24T04:27:56;8.00;;;7.23;;
12892;SDS011;6514;48.606;9.222;2023-08-24T04:30:23;8.40;;;7.63;;
12892;SDS011;6514;48.606;9.222;2023-08-24T04:32:50;8.43;;;7.57;;
12892;SDS011;6514;48.606;9.222;2023-08-24T04:35:18;9.00;;;8.07;;
12892;SDS011;6514;48.606;9.222;2023-08-24T04:37:45;7.57;;;6.87;;
12892;SDS011;6514;48.606;9.222;2023-08-24T04:40:12;8.93;;;7.60;;
12892;SDS011;6514;48.606;9.222;2023-08-24T04:42:38;8.50;;;7.70;;
12892;SDS011;6514;48.606;9.222;2023-08-24T04:45:06;8.40;;;7.53;;
12892;SDS011;6514;48.606;9.222;2023-08-24T04:47:34;9.60;;;7.93;;
12892;SDS011;6514;48.606;9.222;2023-08-24T04:50:01;8.77;;;7.93;;
12892;SDS011;6514;48.606;9.222;2023-08-24T04:52:29;8.43;;;7.63;;
12892;SDS011;6514;48.606;9.222;2023-08-24T04:54:56;8.50;;;7.70;;
12892;SDS011;6514;48.606;9.222;2023-08-24T04:57:22;8.73;;;7.83;;
12892;SDS011;6514;48.606;9.222;2023-08-24T04:59:48;9.63;;;7.70;;
12892;SDS011;6514;48.606;9.222;2023-08-24T05:02:15;7.83;;;7.07;;
12892;SDS011;6514;48.606;9.222;2023-08-24T05:04:42;9.30;;;8.40;;
12892;SDS011;6514;48.606;9.222;2023-08-24T05:07:09;10.87;;;8.03;;
12892;SDS011;6514;48.606;9.222;2023-08-24T05:09:37;9.27;;;8.00;;
12892;SDS011;6514;48.606;9.222;2023-08-24T05:12:04;9.20;;;7.57;;
12892;SDS011;6514;48.606;9.222;2023-08-24T05:14:31;10.50;;;9.10;;
12892;SDS011;6514;48.606;9.222;2023-08-24T05:16:59;12.10;;;9.23;;
12892;SDS011;6514;48.606;9.222;2023-08-24T05:19:26;12.40;;;8.60;;
12892;SDS011;6514;48.606;9.222;2023-08-24T05:21:53;10.63;;;8.37;;
12892;SDS011;6514;48.606;9.222;2023-08-24T05:24:19;7.53;;;6.73;;
12892;SDS011;6514;48.606;9.222;2023-08-24T05:26:48;8.60;;;6.93;;
12892;SDS011;6514;48.606;9.222;2023-08-24T05:29:14;6.97;;;6.23;;
12892;SDS011;6514;48.606;9.222;2023-08-24T05:31:41;6.93;;;6.33;;
12892;SDS011;6514;48.606;9.222;2023-08-24T05:34:08;7.93;;;6.40;;
12892;SDS011;6514;48.606;9.222;2023-08-24T05:36:35;7.93;;;6.60;;
12892;SDS011;6514;48.606;9.222;2023-08-24T05:39:01;7.70;;;5.67;;
12892;SDS011;6514;48.606;9.222;2023-08-24T05:41:28;6.43;;;5.83;;
12892;SDS011;6514;48.606;9.222;2023-08-24T05:43:56;7.73;;;6.93;;
12892;SDS011;6514;48.606;9.222;2023-08-24T05:46:23;8.67;;;6.90;;
12892;SDS011;6514;48.606;9.222;2023-08-24T05:48:50;7.97;;;7.03;;
12892;SDS011;6514;48.606;9.222;2023-08-24T05:51:17;7.93;;;6.60;;
12892;SDS011;6514;48.606;9.222;2023-08-24T05:53:43;7.57;;;6.87;;
12892;SDS011;6514;48.606;9.222;2023-08-24T05:56:10;8.80;;;7.27;;
12892;SDS011;6514;48.606;9.222;2023-08-24T05:58:37;9.63;;;7.30;;
12892;SDS011;6514;48.606;9.222;2023-08-24T06:01:05;8.40;;;6.50;;
12892;SDS011;6514;48.606;9.222;2023-08-24T06:03:33;8.07;;;7.20;;
12892;SDS011;6514;48.606;9.222;2023-08-24T06:06:00;8.27;;;6.57;;
12892;SDS011;6514;48.606;9.222;2023-08-24T06:08:28;9.27;;;6.60;;
12892;SDS011;6514;48.606;9.222;2023-08-24T06:10:56;6.80;;;6.20;;
12892;SDS011;6514;48.606;9.222;2023-08-24T06:13:23;6.87;;;6.20;;
12892;SDS011;6514;48.606;9.222;2023-08-24T06:15:50;6.30;;;5.77;;
12892;SDS011;6514;48.606;9.222;2023-08-24T06:18:18;7.73;;;6.00;;
12892;SDS011;6514;48.606;9.222;2023-08-24T06:20:45;6.33;;;5.30;;
12892;SDS011;6514;48.606;9.222;2023-08-24T06:23:14;7.07;;;5.87;;
12892;SDS011;6514;48.606;9.222;2023-08-24T06:25:41;5.73;;;5.20;;
12892;SDS011;6514;48.606;9.222;2023-08-24T06:28:07;4.77;;;4.37;;
12892;SDS011;6514;48.606;9.222;2023-08-24T06:30:36;6.60;;;5.03;;
12892;SDS011;6514;48.606;9.222;2023-08-24T06:33:04;5.40;;;4.80;;
12892;SDS011;6514;48.606;9.222;2023-08-24T06:35:33;5.60;;;5.10;;
12892;SDS011;6514;48.606;9.222;2023-08-24T06:38:00;5.27;;;4.80;;
12892;SDS011;6514;48.606;9.222;2023-08-24T06:40:28;5.57;;;4.73;;
12892;SDS011;6514;48.606;9.222;2023-08-24T06:42:54;5.67;;;4.50;;
12892;SDS011;6514;48.606;9.222;2023-08-24T06:45:21;5.90;;;5.30;;
12892;SDS011;6514;48.606;9.222;2023-08-24T06:47:48;5.37;;;4.20;;
12892;SDS011;6514;48.606;9.222;2023-08-24T06:50:16;4.17;;;3.87;;
12892;SDS011;6514;48.606;9.222;2023-08-24T06:52:45;4.40;;;3.73;;
12892;SDS011;6514;48.606;9.222;2023-08-24T06:55:12;4.67;;;4.13;;
12892;SDS011;6514;48.606;9.222;2023-08-24T06:57:39;5.80;;;4.60;;
12892;SDS011;6514;48.606;9.222;2023-08-24T07:00:06;4.60;;;4.20;;
12892;SDS011;6514;48.606;9.222;2023-08-24T07:02:34;8.83;;;5.03;;
12892;SDS011;6514;48.606;9.222;2023-08-24T07:05:01;7.60;;;4.80;;
12892;SDS011;6514;48.606;9.222;2023-08-24T07:07:30;6.97;;;5.27;;
12892;SDS011;6514;48.606;9.222;2023-08-24T07:09:58;6.63;;;5.17;;
12892;SDS011;6514;48.606;9.222;2023-08-24T07:12:25;6.03;;;5.40;;
12892;SDS011;6514;48.606;9.222;2023-08-24T07:14:52;5.67;;;5.07;;
12892;SDS011;6514;48.606;9.222;2023-08-24T07:17:19;8.27;;;5.53;;
12892;SDS011;6514;48.606;9.222;2023-08-24T07:19:46;5.50;;;5.00;;
12892;SDS011;6514;48.606;9.222;2023-08-24T07:22:16;7.30;;;5.30;;
12892;SDS011;6514;48.606;9.222;2023-08-24T07:24:42;6.27;;;5.00;;
12892;SDS011;6514;48.606;9.222;2023-08-24T07:27:11;5.50;;;5.00;;
12892;SDS011;6514;48.606;9.222;2023-08-24T07:29:37;6.63;;;4.83;;
12892;SDS011;6514;48.606;9.222;2023-08-24T07:32:04;5.00;;;4.60;;
12892;SDS011;6514;48.606;9.222;2023-08-24T07:34:31;6.40;;;4.77;;
12892;SDS011;6514;48.606;9.222;2023-08-24T07:36:58;4.77;;;4.37;;
12892;SDS011;6514;48.606;9.222;2023-08-24T07:39:25;4.80;;;4.30;;
12892;SDS011;6514;48.606;9.222;2023-08-24T07:41:51;6.33;;;4.50;;
12892;SDS011;6514;48.606;9.222;2023-08-24T07:44:20;5.13;;;4.40;;
12892;SDS011;6514;48.606;9.222;2023-08-24T07:46:47;5.47;;;4.50;;
12892;SDS011;6514;48.606;9.222;2023-08-24T07:49:14;4.70;;;4.30;;
12892;SDS011;6514;48.606;9.222;2023-08-24T07:51:41;3.93;;;3.63;;
12892;SDS011;6514;48.606;9.222;2023-08-24T07:54:09;6.87;;;4.87;;
12892;SDS011;6514;48.606;9.222;2023-08-24T07:56:36;6.73;;;4.73;;
12892;SDS011;6514;48.606;9.222;2023-08-24T07:59:02;5.80;;;4.23;;
12892;SDS011;6514;48.606;9.222;2023-08-24T08:01:31;6.63;;;4.23;;
12892;SDS011;6514;48.606;9.222;2023-08-24T08:03:57;5.00;;;4.50;;
12892;SDS011;6514;48.606;9.222;2023-08-24T08:06:25;4.63;;;4.13;;
12892;SDS011;6514;48.606;9.222;2023-08-24T08:08:52;4.77;;;4.30;;
12892;SDS011;6514;48.606;9.222;2023-08-24T08:11:19;4.73;;;4.10;;
12892;SDS011;6514;48.606;9.222;2023-08-24T08:13:46;4.27;;;3.87;;
12892;SDS011;6514;48.606;9.222;2023-08-24T08:16:13;4.20;;;3.60;;
12892;SDS011;6514;48.606;9.222;2023-08-24T08:18:41;5.20;;;4.60;;
12892;SDS011;6514;48.606;9.222;2023-08-24T08:21:08;4.27;;;3.87;;
12892;SDS011;6514;48.606;9.222;2023-08-24T08:23:36;4.70;;;4.23;;
12892;SDS011;6514;48.606;9.222;2023-08-24T08:26:03;4.10;;;3.70;;
12892;SDS011;6514;48.606;9.222;2023-08-24T08:28:31;4.40;;;3.53;;
12892;SDS011;6514;48.606;9.222;2023-08-24T08:30:59;6.00;;;3.77;;
12892;SDS011;6514;48.606;9.222;2023-08-24T08:33:27;4.80;;;3.70;;
12892;SDS011;6514;48.606;9.222;2023-08-24T08:35:55;3.83;;;3.03;;
12892;SDS011;6514;48.606;9.222;2023-08-24T08:38:22;4.80;;;3.07;;
12892;SDS011;6514;48.606;9.222;2023-08-24T08:40:51;5.50;;;3.40;;
12892;SDS011;6514;48.606;9.222;2023-08-24T08:43:19;4.07;;;3.27;;
12892;SDS011;6514;48.606;9.222;2023-08-24T08:45:48;5.23;;;3.40;;
12892;SDS011;6514;48.606;9.222;2023-08-24T08:48:15;4.87;;;3.03;;
12892;SDS011;6514;48.606;9.222;2023-08-24T08:50:42;6.80;;;3.37;;
12892;SDS011;6514;48.606;9.222;2023-08-24T08:53:10;6.67;;;3.30;;
12892;SDS011;6514;48.606;9.222;2023-08-24T08:55:37;5.37;;;3.30;;
12892;SDS011;6514;48.606;9.222;2023-08-24T08:58:04;4.23;;;2.97;;
12892;SDS011;6514;48.606;9.222;2023-08-24T09:00:31;4.43;;;3.00;;
12892;SDS011;6514;48.606;9.222;2023-08-24T09:02:58;4.90;;;3.70;;
12892;SDS011;6514;48.606;9.222;2023-08-24T09:05:26;4.10;;;2.93;;
12892;SDS011;6514;48.606;9.222;2023-08-24T09:07:53;3.53;;;2.80;;
12892;SDS011;6514;48.606;9.222;2023-08-24T09:10:22;3.30;;;2.77;;
12892;SDS011;6514;48.606;9.222;2023-08-24T09:12:49;4.80;;;2.90;;
12892;SDS011;6514;48.606;9.222;2023-08-24T09:15:23;5.00;;;2.90;;
12892;SDS011;6514;48.606;9.222;2023-08-24T09:17:51;4.17;;;3.03;;
12892;SDS011;6514;48.606;9.222;2023-08-24T09:20:19;4.47;;;3.07;;
12892;SDS011;6514;48.606;9.222;2023-08-24T09:22:46;4.17;;;3.07;;
12892;SDS011;6514;48.606;9.222;2023-08-24T09:25:13;3.47;;;3.17;;
12892;SDS011;6514;48.606;9.222;2023-08-24T09:27:41;3.50;;;3.03;;
12892;SDS011;6514;48.606;9.222;2023-08-24T09:30:08;4.67;;;2.97;;
12892;SDS011;6514;48.606;9.222;2023-08-24T09:32:36;4.20;;;3.10;;
12892;SDS011;6514;48.606;9.222;2023-08-24T09:35:03;4.83;;;2.90;;
12892;SDS011;6514;48.606;9.222;2023-08-24T09:37:33;4.05;;;3.60;;
12892;SDS011;6514;48.606;9.222;2023-08-24T09:40:01;4.03;;;3.10;;
12892;SDS011;6514;48.606;9.222;2023-08-24T09:42:36;4.20;;;3.08;;
12892;SDS011;6514;48.606;9.222;2023-08-24T09:45:06;5.60;;;3.10;;
12892;SDS011;6514;48.606;9.222;2023-08-24T09:47:35;3.92;;;3.05;;
12892;SDS011;6514;48.606;9.222;2023-08-24T09:50:01;3.42;;;2.80;;
12892;SDS011;6514;48.606;9.222;2023-08-24T09:52:32;4.22;;;2.78;;
12892;SDS011;6514;48.606;9.222;2023-08-24T09:55:01;6.35;;;3.25;;
12892;SDS011;6514;48.606;9.222;2023-08-24T09:57:31;3.55;;;3.10;;
12892;SDS011;6514;48.606;9.222;2023-08-24T10:00:02;3.67;;;3.38;;
12892;SDS011;6514;48.606;9.222;2023-08-24T10:02:35;4.25;;;3.33;;
12892;SDS011;6514;48.606;9.222;2023-08-24T10:05:03;5.05;;;2.75;;
12892;SDS011;6514;48.606;9.222;2023-08-24T10:07:32;3.58;;;3.17;;
12892;SDS011;6514;48.606;9.222;2023-08-24T10:10:02;3.45;;;2.88;;
12892;SDS011;6514;48.606;9.222;2023-08-24T10:12:31;4.10;;;3.20;;
12892;SDS011;6514;48.606;9.222;2023-08-24T10:15:09;3.30;;;3.00;;
12892;SDS011;6514;48.606;9.222;2023-08-24T10:17:37;4.15;;;2.90;;
12892;SDS011;6514;48.606;9.222;2023-08-24T10:20:05;3.30;;;3.00;;
12892;SDS011;6514;48.606;9.222;2023-08-24T10:22:34;4.45;;;2.95;;
12892;SDS011;6514;48.606;9.222;2023-08-24T10:25:02;5.00;;;2.78;;
12892;SDS011;6514;48.606;9.222;2023-08-24T10:27:29;3.47;;;3.03;;
12892;SDS011;6514;48.606;9.222;2023-08-24T10:29:56;3.92;;;3.03;;
12892;SDS011;6514;48.606;9.222;2023-08-24T10:32:25;3.30;;;3.00;;
12892;SDS011;6514;48.606;9.222;2023-08-24T10:34:52;4.80;;;3.60;;
12892;SDS011;6514;48.606;9.222;2023-08-24T10:37:24;6.82;;;3.75;;
12892;SDS011;6514;48.606;9.222;2023-08-24T10:39:51;5.10;;;3.33;;
12892;SDS011;6514;48.606;9.222;2023-08-24T10:42:18;3.30;;;3.00;;
12892;SDS011;6514;48.606;9.222;2023-08-24T10:44:46;4.95;;;3.13;;
12892;SDS011;6514;48.606;9.222;2023-08-24T10:47:15;6.30;;;3.75;;
12892;SDS011;6514;48.606;9.222;2023-08-24T10:49:56;3.97;;;3.58;;
12892;SDS011;6514;48.606;9.222;2023-08-24T10:52:24;6.07;;;3.60;;
12892;SDS011;6514;48.606;9.222;2023-08-24T10:54:52;4.15;;;3.75;;
12892;SDS011;6514;48.606;9.222;2023-08-24T10:57:21;4.00;;;3.35;;
12892;SDS011;6514;48.606;9.222;2023-08-24T10:59:58;4.35;;;3.30;;
12892;SDS011;6514;48.606;9.222;2023-08-24T11:02:30;4.38;;;3.40;;
12892;SDS011;6514;48.606;9.222;2023-08-24T11:05:15;4.25;;;3.75;;
12892;SDS011;6514;48.606;9.222;2023-08-24T11:07:50;3.80;;;3.50;;
12892;SDS011;6514;48.606;9.222;2023-08-24T11:10:18;4.45;;;3.75;;
12892;SDS011;6514;48.606;9.222;2023-08-24T11:13:04;4.25;;;3.85;;
12892;SDS011;6514;48.606;9.222;2023-08-24T11:15:32;3.90;;;3.15;;
12892;SDS011;6514;48.606;9.222;2023-08-24T11:18:12;4.88;;;3.53;;
12892;SDS011;6514;48.606;9.222;2023-08-24T11:20:52;5.18;;;3.78;;
12892;SDS011;6514;48.606;9.222;2023-08-24T11:23:20;5.07;;;3.70;;
12892;SDS011;6514;48.606;9.222;2023-08-24T11:25:49;4.82;;;3.67;;
12892;SDS011;6514;48.606;9.222;2023-08-24T11:28:20;5.10;;;4.03;;
12892;SDS011;6514;48.606;9.222;2023-08-24T11:30:47;4.95;;;3.63;;
12892;SDS011;6514;48.606;9.222;2023-08-24T11:33:14;4.30;;;3.50;;
12892;SDS011;6514;48.606;9.222;2023-08-24T11:35:42;4.18;;;3.40;;
12892;SDS011;6514;48.606;9.222;2023-08-24T11:38:11;5.15;;;3.45;;
12892;SDS011;6514;48.606;9.222;2023-08-24T11:40:38;4.32;;;3.80;;
12892;SDS011;6514;48.606;9.222;2023-08-24T11:43:05;4.32;;;3.38;;
12892;SDS011;6514;48.606;9.222;2023-08-24T11:45:32;5.28;;;3.78;;
12892;SDS011;6514;48.606;9.222;2023-08-24T11:48:01;7.05;;;3.88;;
12892;SDS011;6514;48.606;9.222;2023-08-24T11:50:30;3.78;;;3.47;;
12892;SDS011;6514;48.606;9.222;2023-08-24T11:52:57;4.22;;;3.80;;
12892;SDS011;6514;48.606;9.222;2023-08-24T11:55:25;4.95;;;3.78;;
12892;SDS011;6514;48.606;9.222;2023-08-24T11:57:52;4.68;;;3.78;;
12892;SDS011;6514;48.606;9.222;2023-08-24T12:00:20;6.90;;;3.70;;
12892;SDS011;6514;48.606;9.222;2023-08-24T12:02:48;4.70;;;3.75;;
12892;SDS011;6514;48.606;9.222;2023-08-24T12:05:22;6.82;;;3.80;;
12892;SDS011;6514;48.606;9.222;2023-08-24T12:07:51;4.45;;;3.60;;
12892;SDS011;6514;48.606;9.222;2023-08-24T12:10:18;5.22;;;3.42;;
12892;SDS011;6514;48.606;9.222;2023-08-24T12:12:47;4.00;;;3.58;;
12892;SDS011;6514;48.606;9.222;2023-08-24T12:15:17;5.93;;;3.45;;
12892;SDS011;6514;48.606;9.222;2023-08-24T12:17:45;8.95;;;3.90;;
12892;SDS011;6514;48.606;9.222;2023-08-24T12:20:19;4.43;;;3.60;;
12892;SDS011;6514;48.606;9.222;2023-08-24T12:22:53;4.95;;;3.60;;
12892;SDS011;6514;48.606;9.222;2023-08-24T12:25:21;5.00;;;3.80;;
12892;SDS011;6514;48.606;9.222;2023-08-24T12:27:51;4.35;;;3.67;;
12892;SDS011;6514;48.606;9.222;2023-08-24T12:30:18;8.32;;;3.50;;
12892;SDS011;6514;48.606;9.222;2023-08-24T12:32:45;4.18;;;3.65;;
12892;SDS011;6514;48.606;9.222;2023-08-24T12:35:15;7.88;;;3.65;;
12892;SDS011;6514;48.606;9.222;2023-08-24T12:37:42;4.80;;;3.67;;
12892;SDS011;6514;48.606;9.222;2023-08-24T12:40:09;4.97;;;3.60;;
12892;SDS011;6514;48.606;9.222;2023-08-24T12:42:37;5.63;;;3.55;;
12892;SDS011;6514;48.606;9.222;2023-08-24T12:45:06;8.00;;;3.80;;
12892;SDS011;6514;48.606;9.222;2023-08-24T12:47:33;5.00;;;3.35;;
12892;SDS011;6514;48.606;9.222;2023-08-24T12:50:03;7.07;;;3.88;;
12892;SDS011;6514;48.606;9.222;2023-08-24T12:52:31;5.18;;;3.13;;
12892;SDS011;6514;48.606;9.222;2023-08-24T12:54:59;4.97;;;3.42;;
12892;SDS011;6514;48.606;9.222;2023-08-24T12:57:25;4.68;;;3.80;;
12892;SDS011;6514;48.606;9.222;2023-08-24T12:59:51;8.25;;;3.80;;
12892;SDS011;6514;48.606;9.222;2023-08-24T13:02:21;5.70;;;3.40;;
12892;SDS011;6514;48.606;9.222;2023-08-24T13:04:47;3.70;;;3.25;;
12892;SDS011;6514;48.606;9.222;2023-08-24T13:07:14;5.70;;;3.70;;
12892;SDS011;6514;48.606;9.222;2023-08-24T13:09:41;8.25;;;3.50;;
12892;SDS011;6514;48.606;9.222;2023-08-24T13:12:08;4.05;;;3.65;;
12892;SDS011;6514;48.606;9.222;2023-08-24T13:14:35;4.43;;;3.28;;
12892;SDS011;6514;48.606;9.222;2023-08-24T13:17:01;6.22;;;3.75;;
12892;SDS011;6514;48.606;9.222;2023-08-24T13:19:30;4.70;;;3.60;;
12892;SDS011;6514;48.606;9.222;2023-08-24T13:21:57;5.68;;;3.20;;
12892;SDS011;6514;48.606;9.222;2023-08-24T13:24:23;4.07;;;3.53;;
12892;SDS011;6514;48.606;9.222;2023-08-24T13:26:50;7.63;;;3.45;;
12892;SDS011;6514;48.606;9.222;2023-08-24T13:29:17;8.32;;;3.83;;
12892;SDS011;6514;48.606;9.222;2023-08-24T13:31:44;7.30;;;3.85;;
12892;SDS011;6514;48.606;9.222;2023-08-24T13:34:10;5.97;;;3.10;;
12892;SDS011;6514;48.606;9.222;2023-08-24T13:36:39;6.00;;;3.50;;
12892;SDS011;6514;48.606;9.222;2023-08-24T13:39:05;8.23;;;3.50;;
12892;SDS011;6514;48.606;9.222;2023-08-24T13:41:32;8.05;;;3.53;;
12892;SDS011;6514;48.606;9.222;2023-08-24T13:43:59;8.55;;;3.65;;
12892;SDS011;6514;48.606;9.222;2023-08-24T13:46:26;8.88;;;3.45;;
12892;SDS011;6514;48.606;9.222;2023-08-24T13:48:52;9.70;;;3.67;;
12892;SDS011;6514;48.606;9.222;2023-08-24T13:51:19;6.05;;;3.50;;
12892;SDS011;6514;48.606;9.222;2023-08-24T13:53:48;7.22;;;3.45;;
12892;SDS011;6514;48.606;9.222;2023-08-24T13:56:15;4.65;;;3.25;;
12892;SDS011;6514;48.606;9.222;2023-08-24T13:58:41;5.43;;;3.42;;
12892;SDS011;6514;48.606;9.222;2023-08-24T14:01:09;7.25;;;3.33;;
12892;SDS011;6514;48.606;9.222;2023-08-24T14:03:37;5.30;;;3.40;;
12892;SDS011;6514;48.606;9.222;2023-08-24T14:06:04;6.70;;;3.63;;
12892;SDS011;6514;48.606;9.222;2023-08-24T14:08:31;5.40;;;3.47;;
12892;SDS011;6514;48.606;9.222;2023-08-24T14:10:59;6.72;;;3.90;;
12892;SDS011;6514;48.606;9.222;2023-08-24T14:13:26;8.80;;;3.60;;
12892;SDS011;6514;48.606;9.222;2023-08-24T14:15:53;5.13;;;3.30;;
12892;SDS011;6514;48.606;9.222;2023-08-24T14:18:21;7.30;;;3.80;;
12892;SDS011;6514;48.606;9.222;2023-08-24T14:20:48;12.88;;;3.97;;
12892;SDS011;6514;48.606;9.222;2023-08-24T14:23:15;7.78;;;3.45;;
12892;SDS011;6514;48.606;9.222;2023-08-24T14:25:42;5.78;;;3.33;;
12892;SDS011;6514;48.606;9.222;2023-08-24T14:28:10;7.55;;;3.83;;
12892;SDS011;6514;48.606;9.222;2023-08-24T14:30:38;6.97;;;3.28;;
12892;SDS011;6514;48.606;9.222;2023-08-24T14:33:05;8.43;;;3.38;;
12892;SDS011;6514;48.606;9.222;2023-08-24T14:35:31;7.63;;;3.40;;
12892;SDS011;6514;48.606;9.222;2023-08-24T14:37:58;6.35;;;3.60;;
12892;SDS011;6514;48.606;9.222;2023-08-24T14:40:25;5.15;;;3.33;;
12892;SDS011;6514;48.606;9.222;2023-08-24T14:42:52;5.45;;;3.30;;
12892;SDS011;6514;48.606;9.222;2023-08-24T14:45:21;5.35;;;3.60;;
12892;SDS011;6514;48.606;9.222;2023-08-24T14:47:48;6.93;;;3.78;;
12892;SDS011;6514;48.606;9.222;2023-08-24T14:50:14;5.07;;;3.23;;
12892;SDS011;6514;48.606;9.222;2023-08-24T14:52:41;7.15;;;3.65;;
12892;SDS011;6514;48.606;9.222;2023-08-24T14:55:08;6.57;;;3.87;;
12892;SDS011;6514;48.606;9.222;2023-08-24T14:57:35;8.23;;;3.43;;
12892;SDS011;6514;48.606;9.222;2023-08-24T15:00:02;5.00;;;3.50;;
12892;SDS011;6514;48.606;9.222;2023-08-24T15:02:32;9.07;;;3.80;;
12892;SDS011;6514;48.606;9.222;2023-08-24T15:04:59;7.67;;;3.60;;